Siren, WI

3:22 AM CDT on April 23, 2017 (GMT -0500)
Burnett County

Weather History for KRZN - July, 2014

Change the Weather History Date:

Friday, July 4, 2014

  Actual Average Record
Temperature  
Mean Temperature 62 °F -  
Max Temperature 77 °F - - ()
Min Temperature 48 °F - - ()
Degree Days  
Heating Degree Days 2    
Growing Degree Days 12 (Base 50)    
Moisture  
Dew Point 50 °F    
Average Humidity 60    
Maximum Humidity 94    
Minimum Humidity 32    
Precipitation  
Precipitation 0.00 in - - ()
Sea Level Pressure  
Sea Level Pressure 30.21 in    
Wind  
Wind Speed 4 mph (SSW)    
Max Wind Speed 15 mph    
Max Gust Speed 23 mph    
Visibility 10 miles    
Events      
Averages and records for this station are not official NWS values.
T = Trace of Precipitation, MM = Missing Value Source: NWS Daily Summary

Daily Weather History Graph

Daily Weather History Graph

Search for Another Location

Airport or City:

Trip Planner

Search our weather history database for the weather conditions in past years. The results will help you decide how hot, cold, wet, or windy it might be!

Date:

Astronomy

Jul. 04, 2014 Rise Set
Actual Time 5:25 AM CDT 9:02 PM CDT
Civil Twilight 4:47 AM CDT 9:40 PM CDT
Nautical Twilight 3:56 AM CDT 10:30 PM CDT
Astronomical Twilight 2:48 AM CDT 11:37 PM CDT
Moon 12:45 PM CDT (7/4) 12:03 AM CDT (7/4)
Length of Visible Light 16h 52m
Length of Day
15h 37m
Waxing Crescent, 42% of the Moon is Illuminated
Jul 4
Waxing Crescent
Jul 5
First Quarter
Jul 12
Full
Jul 18
Last Quarter
Jul 26
New

Hourly Weather History & Observations

Time (CDT) Temp. Dew Point Humidity Pressure Visibility Wind Dir Wind Speed Gust Speed Precip Events Conditions
12:10 AM 55.6 °F 52.2 °F 88% 30.22 in 10.0 mi Calm Calm - N/A   Clear
12:30 AM 55.2 °F 52.3 °F 90% 30.22 in 10.0 mi Calm Calm - N/A   Clear
12:50 AM 54.5 °F 52.5 °F 93% 30.22 in 10.0 mi Calm Calm - N/A   Clear
1:10 AM 51.8 °F 48.7 °F 89% 30.23 in 10.0 mi Calm Calm - N/A   Clear
1:30 AM 54.3 °F 52.7 °F 94% 30.23 in 10.0 mi Calm Calm - N/A   Clear
1:50 AM 54.5 °F 52.2 °F 92% 30.23 in 10.0 mi Calm Calm - N/A   Clear
2:10 AM 54.0 °F 51.8 °F 92% 30.23 in 10.0 mi Calm Calm - N/A   Clear
2:30 AM 52.3 °F 49.6 °F 91% 30.24 in 10.0 mi Calm Calm - N/A   Clear
2:50 AM 53.2 °F 51.1 °F 92% 30.24 in 10.0 mi Calm Calm - N/A   Clear
3:10 AM 52.5 °F 50.4 °F 92% 30.25 in 10.0 mi Calm Calm - N/A   Clear
3:30 AM 51.6 °F 49.1 °F 91% 30.25 in 10.0 mi Calm Calm - N/A   Clear
3:50 AM 51.3 °F 48.9 °F 92% 30.25 in 10.0 mi Calm Calm - N/A   Clear
4:10 AM 49.6 °F 48.0 °F 94% 30.25 in 10.0 mi Calm Calm - N/A   Clear
4:30 AM 50.9 °F 49.3 °F 94% 30.25 in 10.0 mi Calm Calm - N/A   Clear
4:50 AM 50.4 °F 48.4 °F 93% 30.26 in 10.0 mi Calm Calm - N/A   Clear
5:10 AM 49.1 °F 47.1 °F 93% 30.26 in 10.0 mi Calm Calm - N/A   Clear
5:30 AM 48.4 °F 45.9 °F 91% 30.26 in 10.0 mi Calm Calm - N/A   Clear
5:50 AM 50.0 °F 47.7 °F 92% 30.26 in 10.0 mi Calm Calm - N/A   Clear
6:10 AM 50.5 °F 48.7 °F 94% 30.27 in 10.0 mi Calm Calm - N/A   Clear
6:30 AM 52.7 °F 50.7 °F 93% 30.27 in 10.0 mi Calm Calm - N/A   Clear
6:50 AM 57.2 °F 53.2 °F 87% 30.27 in 10.0 mi Calm Calm - N/A   Clear
7:10 AM 59.9 °F 53.2 °F 79% 30.27 in 10.0 mi SSE 3.5 mph - N/A   Clear
7:30 AM 61.9 °F 53.8 °F 75% 30.27 in 10.0 mi Calm Calm - N/A   Clear
7:50 AM 64.0 °F 54.5 °F 71% 30.28 in 10.0 mi Calm Calm - N/A   Clear
8:10 AM 66.4 °F 54.1 °F 65% 30.28 in 10.0 mi SSE 3.5 mph - N/A   Clear
8:30 AM 67.8 °F 53.4 °F 60% 30.28 in 10.0 mi South 3.5 mph - N/A   Clear
8:50 AM 69.6 °F 53.8 °F 57% 30.28 in 10.0 mi South 3.5 mph - N/A   Clear
9:10 AM 71.2 °F 53.8 °F 54% 30.27 in 10.0 mi SW 5.8 mph - N/A   Clear
9:30 AM 72.9 °F 53.1 °F 50% 30.27 in 10.0 mi WSW 6.9 mph - N/A   Clear
9:50 AM 73.6 °F 52.3 °F 47% 30.26 in 10.0 mi SSW 6.9 mph - N/A   Clear
10:10 AM 72.9 °F 51.4 °F 47% 30.26 in 10.0 mi WSW 5.8 mph - N/A   Clear
10:30 AM 73.4 °F 51.1 °F 45% 30.26 in 10.0 mi WSW 6.9 mph - N/A   Clear
10:50 AM 73.6 °F 50.4 °F 44% 30.26 in 10.0 mi SW 8.1 mph - N/A   Clear
11:10 AM 75.0 °F 48.4 °F 39% 30.26 in 10.0 mi SSW 12.7 mph - N/A   Clear
11:30 AM 75.0 °F 45.3 °F 35% 30.25 in 10.0 mi SSW 10.4 mph - N/A   Scattered Clouds
11:50 AM 76.1 °F 46.4 °F 35% 30.25 in 10.0 mi South 11.5 mph 16.1 mph N/A   Scattered Clouds
12:10 PM 75.7 °F 45.1 °F 34% 30.24 in 10.0 mi SSW 8.1 mph - N/A   Scattered Clouds
12:30 PM 76.8 °F 45.5 °F 33% 30.24 in 10.0 mi SSW 10.4 mph 16.1 mph N/A   Clear
12:50 PM 77.0 °F 45.7 °F 33% 30.23 in 10.0 mi South 11.5 mph - N/A   Clear
1:10 PM 77.2 °F 45.3 °F 32% 30.23 in 10.0 mi South 12.7 mph 18.4 mph N/A   Clear
1:30 PM 77.4 °F 46.2 °F 33% 30.23 in 10.0 mi South 13.8 mph 18.4 mph N/A   Clear
1:50 PM 77.2 °F 46.8 °F 34% 30.22 in 10.0 mi SSW 13.8 mph 18.4 mph N/A   Clear
2:10 PM 77.7 °F 46.8 °F 33% 30.22 in 10.0 mi SW 15.0 mph 23.0 mph N/A   Scattered Clouds
2:30 PM 77.2 °F 46.8 °F 34% 30.22 in 10.0 mi SSW 11.5 mph 20.7 mph N/A   Mostly Cloudy
2:50 PM 76.5 °F 46.6 °F 35% 30.22 in 10.0 mi SW 11.5 mph 20.7 mph N/A   Mostly Cloudy
3:10 PM 76.8 °F 48.6 °F 37% 30.22 in 10.0 mi SW 10.4 mph 20.7 mph N/A   Mostly Cloudy
3:30 PM 76.1 °F 48.6 °F 38% 30.21 in 10.0 mi South 10.4 mph 18.4 mph N/A   Mostly Cloudy
3:50 PM 76.1 °F 48.9 °F 38% 30.21 in 10.0 mi SW 9.2 mph - N/A   Overcast
4:10 PM 75.4 °F 48.4 °F 38% 30.20 in 10.0 mi SSW 12.7 mph 16.1 mph N/A   Overcast
4:30 PM 74.5 °F 48.9 °F 40% 30.20 in 10.0 mi SSW 11.5 mph 16.1 mph N/A   Overcast
4:50 PM 73.9 °F 49.6 °F 42% 30.20 in 10.0 mi SW 11.5 mph 16.1 mph N/A   Mostly Cloudy
5:30 PM 72.7 °F 50.0 °F 45% 30.20 in 10.0 mi SSW 5.8 mph - N/A   Overcast
5:50 PM 71.8 °F 50.7 °F 47% 30.19 in 10.0 mi South 9.2 mph - N/A   Overcast
6:10 PM 72.0 °F 51.8 °F 49% 30.18 in 10.0 mi South 6.9 mph - N/A   Overcast
6:30 PM 72.3 °F 51.3 °F 47% 30.17 in 10.0 mi South 8.1 mph - N/A   Overcast
6:50 PM 72.0 °F 51.6 °F 49% 30.15 in 10.0 mi South 9.2 mph - N/A   Mostly Cloudy
7:10 PM 72.0 °F 52.2 °F 50% 30.14 in 10.0 mi South 9.2 mph - N/A   Scattered Clouds
7:30 PM 71.4 °F 51.8 °F 50% 30.13 in 10.0 mi South 8.1 mph - N/A   Scattered Clouds
7:50 PM 71.2 °F 51.8 °F 50% 30.13 in 10.0 mi South 10.4 mph - N/A   Scattered Clouds
8:10 PM 71.6 °F 51.6 °F 49% 30.13 in 10.0 mi South 6.9 mph - N/A   Mostly Cloudy
8:35 PM 71.2 °F 52.0 °F 51% 30.12 in 10.0 mi SSE 10.4 mph - N/A   Overcast
8:50 PM 71.2 °F 52.0 °F 51% 30.11 in 10.0 mi South 8.1 mph - N/A   Overcast
9:10 PM 70.9 °F 52.2 °F 51% 30.11 in 10.0 mi South 8.1 mph - N/A   Overcast
9:30 PM 70.7 °F 52.3 °F 52% 30.11 in 10.0 mi SSE 10.4 mph - N/A   Overcast
9:50 PM 70.7 °F 52.5 °F 52% 30.12 in 10.0 mi South 9.2 mph - N/A   Overcast
10:10 PM 70.3 °F 52.5 °F 53% 30.12 in 10.0 mi South 8.1 mph - N/A   Overcast
10:30 PM 70.2 °F 52.0 °F 52% 30.13 in 10.0 mi South 8.1 mph - N/A   Overcast
10:50 PM 70.2 °F 52.0 °F 52% 30.12 in 10.0 mi South 9.2 mph - N/A   Mostly Cloudy
11:10 PM 69.8 °F 51.8 °F 53% 30.12 in 10.0 mi South 9.2 mph - N/A   Clear
11:30 PM 68.9 °F 51.8 °F 54% 30.12 in 10.0 mi South 10.4 mph - N/A   Clear
11:50 PM 69.1 °F 51.3 °F 53% 30.12 in 10.0 mi South 9.2 mph 19.6 mph N/A   Clear